Main page
METAR-TAF:

METAR-TAF

Airports :

Double Eagle II Airport

Albuquerque, New Mexico, United States

latitude: 35-08-42N, longitude: 106-47-42W, elevation: 5835 ft

Current weather observation

The report was made 16 minutes ago, at 15:50 UTC
Wind 6 mph from the North/Northeast
Temperature 68°F
Humidity 53%
Pressure 30.15 in. Hg
Visibility: 10 miles
Clear sky

METAR: KAEG 151550Z 02005KT 10SM CLR 20/10 A3015

Time: 10:06 (16:06 UTC)

Forecast

The report was made 4 hours and 46 minutes ago, at 11:20 UTC
Forecast valid from 15 at 12 UTC to 16 at 12 UTC
Wind 5 mph from the North
Visibility: 6 miles
Clear sky
From 15 at 2000 UTC
Wind 9 mph from the Southwest
Visibility: 6 miles
Few clouds at a height of 12000 ft
From 16 at 0200 UTC
Wind 6 mph from variable directions
Visibility: 6 miles
Scattered clouds at a height of 15000 ft

TAF: KAEG 151120Z 1512/1612 35004KT P6SM SKC FM152000 23008KT P6SM FEW120 FM160200 VRB05KT P6SM SCT150

Weather observations and forecasts of more than 4000 airports (METAR and TAF reports).

The available stations are represented by yellow and red dots on the map.

Hover mouse over dot to see the name of the station.

Then click to see weather observations and forecasts.

To change the map : click on the green buttons with a black cross to zoom in, on the green button with a dash to zoom out, or on the green arrows for adjacent maps.


METAR-TAF: